Time;durP1;ratioP1;P1;durP2;ratioP2;P2;SDS_P1;SDS_P2;PMS_P1;PMS_P2;Temp;Humidity;BMP_temperature;BMP_pressure;BME280_temperature;BME280_humidity;BME280_pressure;Samples;Min_cycle;Max_cycle;Signal;HPM_P1;HPM_P2
2023/10/29 00:01:31;;;;;;;4.83;2.53;;;10.30;99.90;;;9.62;100.00;99200.91;5034853;28;20551;-71
2023/10/29 00:04:00;;;;;;;5.00;2.47;;;10.30;99.90;;;9.63;100.00;99191.88;5034871;28;20207;-71
2023/10/29 00:06:29;;;;;;;6.53;2.60;;;10.30;99.90;;;9.65;100.00;99184.53;5034728;28;20595;-71
2023/10/29 00:08:57;;;;;;;5.67;2.83;;;10.40;99.90;;;9.65;100.00;99189.88;5034688;28;20325;-71
2023/10/29 00:11:26;;;;;;;6.00;2.60;;;10.30;99.90;;;9.64;100.00;99176.69;5034414;28;20206;-71
2023/10/29 00:13:55;;;;;;;3.67;2.53;;;10.30;99.90;;;9.66;100.00;99174.63;5034549;28;20272;-72
2023/10/29 00:16:24;;;;;;;6.23;2.67;;;10.30;99.90;;;9.68;100.00;99169.94;5034225;28;20721;-72
2023/10/29 00:18:52;;;;;;;5.00;2.87;;;10.40;99.90;;;9.69;100.00;99158.25;5034592;28;20290;-72
2023/10/29 00:21:20;;;;;;;5.73;2.70;;;10.40;99.90;;;9.68;100.00;99152.06;5033617;28;20301;-72
2023/10/29 00:23:50;;;;;;;4.40;2.50;;;10.40;99.90;;;9.71;100.00;99152.69;5034425;28;20206;-72
2023/10/29 00:26:18;;;;;;;9.17;3.00;;;10.40;99.90;;;9.72;100.00;99138.31;5034047;28;20222;-72
2023/10/29 00:28:46;;;;;;;6.70;2.77;;;10.40;99.90;;;9.73;100.00;99134.59;5034275;28;20289;-72
2023/10/29 00:31:14;;;;;;;5.47;2.70;;;10.40;99.90;;;9.74;100.00;99141.59;5034337;28;20294;-72
2023/10/29 00:33:42;;;;;;;5.93;2.63;;;10.40;99.90;;;9.73;100.00;99147.97;5033991;28;20676;-72
2023/10/29 00:36:10;;;;;;;4.87;2.70;;;10.40;99.90;;;9.73;100.00;99147.97;5033901;28;20650;-72
2023/10/29 00:38:39;;;;;;;6.73;3.33;;;10.40;99.90;;;9.74;100.00;99152.28;5034212;28;20293;-72
2023/10/29 00:41:08;;;;;;;4.77;2.50;;;10.40;99.90;;;9.74;100.00;99154.97;5033853;28;20739;-71
2023/10/29 00:46:09;;;;;;;5.90;2.30;;;10.40;99.90;;;9.78;100.00;99150.91;5033737;28;20766;-71
2023/10/29 00:48:38;;;;;;;4.40;2.50;;;10.50;99.90;;;9.79;100.00;99150.72;5033972;28;20258;-71
2023/10/29 00:51:07;;;;;;;7.30;3.13;;;10.50;99.90;;;9.81;100.00;99134.47;5033675;28;20683;-71
2023/10/29 00:53:35;;;;;;;6.37;2.87;;;10.50;99.90;;;9.82;100.00;99126.25;5033971;28;20615;-71
2023/10/29 00:56:05;;;;;;;4.33;2.33;;;10.50;99.90;;;9.85;100.00;99125.03;5034113;28;20318;-71
2023/10/29 00:58:35;;;;;;;4.13;2.47;;;10.60;99.90;;;9.87;100.00;99123.00;5033584;28;20750;-71
2023/10/29 01:01:04;;;;;;;4.90;2.37;;;10.60;99.90;;;9.88;100.00;99121.97;5033606;28;20648;-71
2023/10/29 01:03:32;;;;;;;4.50;2.60;;;10.60;99.90;;;9.88;100.00;99124.66;5034030;28;20206;-71
2023/10/29 01:06:01;;;;;;;4.30;2.13;;;10.60;99.90;;;9.89;100.00;99128.97;5033730;28;20226;-71
2023/10/29 01:08:29;;;;;;;3.90;2.37;;;10.60;99.90;;;9.90;100.00;99122.59;5033332;28;20649;-71
2023/10/29 01:10:57;;;;;;;4.63;2.87;;;10.60;99.90;;;9.92;100.00;99117.91;5033363;28;20207;-71
2023/10/29 01:13:25;;;;;;;6.57;2.40;;;10.60;99.90;;;9.94;100.00;99105.16;5033567;28;20314;-71
2023/10/29 01:15:55;;;;;;;4.10;2.17;;;10.60;99.90;;;9.94;100.00;99127.38;5033554;28;20234;-71
2023/10/29 01:18:23;;;;;;;6.20;2.30;;;10.60;99.90;;;9.93;100.00;99109.66;5033586;28;20202;-72
2023/10/29 01:20:51;;;;;;;5.00;2.60;;;10.60;99.90;;;9.95;100.00;99109.47;5033583;28;20276;-72
2023/10/29 01:23:20;;;;;;;3.37;2.13;;;10.70;99.90;;;9.98;100.00;99112.59;5033431;28;20669;-72
2023/10/29 01:25:48;;;;;;;5.13;2.43;;;10.70;99.90;;;9.99;100.00;99100.06;5033425;28;20227;-72
2023/10/29 01:28:16;;;;;;;4.37;2.00;;;10.70;99.90;;;10.01;100.00;99106.03;5033470;28;20217;-72
2023/10/29 01:30:44;;;;;;;5.47;2.17;;;10.70;99.90;;;10.01;100.00;99098.00;5033317;28;20265;-72
2023/10/29 01:33:13;;;;;;;3.27;2.10;;;10.70;99.90;;;10.01;100.00;99098.00;5033057;28;20207;-72
2023/10/29 01:35:42;;;;;;;3.40;2.50;;;10.80;99.90;;;10.01;100.00;99089.97;5033334;28;20227;-72
2023/10/29 01:38:10;;;;;;;4.63;2.30;;;10.70;99.90;;;10.02;100.00;99088.97;5033902;28;20203;-72
2023/10/29 01:40:38;;;;;;;3.60;2.03;;;10.70;99.90;;;10.04;100.00;99092.25;5033370;28;20224;-72
2023/10/29 01:43:06;;;;;;;2.93;2.03;;;10.70;99.90;;;10.04;100.00;99081.56;5033375;28;20238;-73
2023/10/29 01:45:36;;;;;;;3.07;2.00;;;10.70;99.90;;;10.06;100.00;99084.88;5033253;28;20280;-72
2023/10/29 01:48:05;;;;;;;2.83;1.97;;;10.80;99.90;;;10.06;100.00;99068.84;5033013;28;20587;-72
2023/10/29 01:50:36;;;;;;;4.03;1.93;;;10.80;99.90;;;10.08;100.00;99061.44;5032910;28;20779;-72
2023/10/29 01:53:05;;;;;;;3.50;1.83;;;10.80;99.90;;;10.08;100.00;99045.38;5033317;28;20199;-72
2023/10/29 01:55:37;;;;;;;3.73;1.97;;;10.80;99.90;;;10.11;100.00;99055.69;5033204;28;20233;-72
2023/10/29 01:58:05;;;;;;;3.30;2.00;;;10.80;99.90;;;10.11;100.00;99045.00;5033285;28;20275;-72
2023/10/29 02:00:33;;;;;;;3.63;2.10;;;10.80;99.90;;;10.10;100.00;99052.19;5032894;28;20560;-72
2023/10/29 02:03:01;;;;;;;3.60;1.90;;;10.80;99.90;;;10.13;100.00;99035.78;5032843;28;20653;-72
2023/10/29 02:05:30;;;;;;;2.43;1.83;;;10.90;99.90;;;10.13;100.00;99040.28;5033086;28;20281;-72
2023/10/29 02:07:59;;;;;;;5.50;2.20;;;10.90;99.90;;;10.15;100.00;99030.22;5033115;28;20298;-72
2023/10/29 02:10:28;;;;;;;4.00;2.10;;;10.90;99.90;;;10.15;100.00;99019.53;5033036;28;20234;-73
2023/10/29 02:12:56;;;;;;;5.03;2.17;;;10.90;99.90;;;10.17;100.00;99028.22;5032869;28;20309;-73
2023/10/29 02:15:24;;;;;;;2.47;2.00;;;10.90;99.90;;;10.19;100.00;99015.44;5033027;28;20261;-73
2023/10/29 02:17:52;;;;;;;4.07;2.20;;;10.90;99.90;;;10.20;100.00;99017.09;5032733;28;20207;-73
2023/10/29 02:20:20;;;;;;;4.67;2.40;;;10.90;99.90;;;10.21;100.00;98997.34;5032939;28;20665;-73
2023/10/29 02:22:50;;;;;;;3.03;1.90;;;10.90;99.90;;;10.20;100.00;99011.75;5033013;28;20213;-73
2023/10/29 02:25:18;;;;;;;3.87;1.97;;;10.90;99.90;;;10.23;100.00;99005.19;5032586;28;20728;-73
2023/10/29 02:27:46;;;;;;;5.53;1.93;;;11.00;99.90;;;10.25;100.00;98998.59;5032994;28;20233;-73
2023/10/29 02:30:15;;;;;;;4.23;1.97;;;11.00;99.90;;;10.25;100.00;98984.38;5032571;28;20772;-73
2023/10/29 02:32:43;;;;;;;3.53;1.90;;;11.00;99.90;;;10.27;100.00;98988.53;5032541;28;20754;-73
2023/10/29 02:35:11;;;;;;;5.97;2.20;;;11.00;99.90;;;10.26;100.00;98988.72;5032734;28;20226;-73
2023/10/29 02:37:39;;;;;;;4.23;2.00;;;11.00;99.90;;;10.28;100.00;98965.25;5032808;28;20202;-73
2023/10/29 02:40:12;;;;;;;3.83;2.50;;;11.00;99.90;;;10.29;100.00;98973.09;5032525;28;20209;-73
2023/10/29 02:42:40;;;;;;;5.03;2.07;;;11.00;99.90;;;10.31;100.00;98979.06;5032854;28;20223;-73
2023/10/29 02:45:09;;;;;;;4.50;2.13;;;11.10;99.90;;;10.30;100.00;98966.75;5034134;28;20269;-73
2023/10/29 02:47:37;;;;;;;4.60;2.30;;;11.00;99.90;;;10.32;100.00;98978.03;5035975;28;20578;-73
2023/10/29 02:50:07;;;;;;;4.20;2.07;;;11.00;99.90;;;10.32;100.00;98966.50;5035920;28;20601;-73
2023/10/29 02:52:35;;;;;;;4.53;1.90;;;11.00;99.90;;;10.34;100.00;98965.31;5036236;28;20210;-73
2023/10/29 02:55:04;;;;;;;4.70;2.17;;;11.10;99.90;;;10.34;100.00;98959.97;5036101;28;20297;-73
2023/10/29 02:57:33;;;;;;;2.90;2.00;;;11.10;99.90;;;10.36;100.00;98947.19;5036110;28;20203;-73
2023/10/29 03:00:01;;;;;;;4.20;2.03;;;11.10;99.90;;;10.36;100.00;98949.88;5036091;28;20286;-73
2023/10/29 03:02:29;;;;;;;3.60;1.90;;;11.10;99.90;;;10.37;100.00;98964.06;5036030;28;20230;-73
2023/10/29 03:04:58;;;;;;;4.10;1.93;;;11.10;99.90;;;10.37;100.00;98954.22;5035901;28;20281;-73
2023/10/29 03:07:26;;;;;;;2.67;1.80;;;11.10;99.90;;;10.38;100.00;98947.81;5035970;28;20290;-73
2023/10/29 03:09:54;;;;;;;3.33;1.80;;;11.10;99.90;;;10.39;100.00;98943.28;5035867;28;20317;-73
2023/10/29 03:12:22;;;;;;;4.87;2.00;;;11.10;99.90;;;10.39;100.00;98935.25;5035650;28;20218;-73
2023/10/29 03:14:51;;;;;;;3.17;1.90;;;11.10;99.90;;;10.38;100.00;98926.41;5035406;28;20769;-73
2023/10/29 03:17:20;;;;;;;2.77;1.50;;;11.10;99.90;;;10.39;100.00;98930.75;5035804;28;20206;-73
2023/10/29 03:19:48;;;;;;;5.30;2.00;;;11.10;99.90;;;10.40;100.00;98921.69;5035674;28;20249;-73
2023/10/29 03:22:16;;;;;;;2.43;1.77;;;11.10;99.90;;;10.44;100.00;98922.94;5035690;28;20305;-73
2023/10/29 03:24:44;;;;;;;2.83;1.93;;;11.20;99.90;;;10.44;100.00;98912.25;5035355;28;20673;-73
2023/10/29 03:27:12;;;;;;;2.27;1.60;;;11.20;99.90;;;10.46;100.00;98899.47;5035596;28;20241;-73
2023/10/29 03:29:41;;;;;;;3.00;1.80;;;11.20;99.90;;;10.45;100.00;98892.47;5035512;28;20246;-73
2023/10/29 03:32:10;;;;;;;3.53;1.60;;;11.20;99.90;;;10.47;100.00;98889.59;5035420;28;20624;-72
2023/10/29 03:34:38;;;;;;;3.80;1.77;;;11.20;99.90;;;10.48;100.00;98884.03;5035453;28;20293;-72
2023/10/29 03:37:06;;;;;;;2.47;1.60;;;11.20;99.90;;;10.50;100.00;98884.66;5035045;28;20592;-72
2023/10/29 03:39:34;;;;;;;2.80;1.73;;;11.20;99.90;;;10.50;100.00;98886.50;5035077;28;20242;-73
2023/10/29 03:42:03;;;;;;;3.10;1.43;;;11.20;99.90;;;10.51;100.00;98886.28;5035028;28;20564;-73
2023/10/29 03:44:32;;;;;;;4.20;1.73;;;11.30;99.90;;;10.52;100.00;98889.78;5035292;28;20261;-73
2023/10/29 03:47:00;;;;;;;3.87;1.50;;;11.30;99.90;;;10.52;100.00;98895.97;5034889;28;20227;-72
2023/10/29 03:49:30;;;;;;;3.37;1.53;;;11.30;99.90;;;10.53;100.00;98897.63;5034876;28;20669;-73
2023/10/29 03:51:58;;;;;;;5.50;1.80;;;11.20;99.90;;;10.53;100.00;98889.59;5035075;28;20288;-73
2023/10/29 03:54:26;;;;;;;2.17;1.60;;;11.20;99.90;;;10.53;100.00;98889.59;5035103;28;20302;-72
2023/10/29 03:56:54;;;;;;;3.90;1.50;;;11.30;99.90;;;10.54;100.00;98891.25;5034698;28;20249;-72
2023/10/29 03:59:22;;;;;;;3.47;1.80;;;11.30;99.90;;;10.54;100.00;98896.59;5034981;28;20257;-72
2023/10/29 04:01:51;;;;;;;4.80;1.80;;;11.30;99.90;;;10.56;100.00;98888.34;5034963;28;20203;-72
2023/10/29 04:04:19;;;;;;;3.43;1.50;;;11.30;99.90;;;10.57;100.00;98884.66;5034915;28;20218;-72
2023/10/29 04:06:48;;;;;;;3.57;1.70;;;11.30;99.90;;;10.57;100.00;98877.47;5034777;28;20234;-72
2023/10/29 04:09:16;;;;;;;3.73;1.60;;;11.30;99.90;;;10.58;100.00;98863.03;5034813;28;20724;-72
2023/10/29 04:11:45;;;;;;;3.47;1.60;;;11.30;99.90;;;10.58;100.00;98855.00;5034516;28;20264;-73
2023/10/29 04:14:13;;;;;;;3.57;1.57;;;11.30;99.90;;;10.59;100.00;98847.81;5034650;28;20680;-73
2023/10/29 04:16:41;;;;;;;2.27;1.57;;;11.30;99.90;;;10.61;100.00;98846.59;5034572;28;20226;-73
2023/10/29 04:19:09;;;;;;;3.67;1.80;;;11.40;99.90;;;10.63;100.00;98849.88;5034532;28;20748;-73
2023/10/29 04:21:37;;;;;;;3.30;1.63;;;11.40;99.90;;;10.65;100.00;98863.06;5034563;28;20297;-73
2023/10/29 04:24:08;;;;;;;3.50;1.60;;;11.40;99.90;;;10.65;100.00;98847.81;5034205;28;20302;-73
2023/10/29 04:26:36;;;;;;;2.50;1.70;;;11.40;99.90;;;10.66;100.00;98833.41;5034321;28;20709;-73
2023/10/29 04:29:04;;;;;;;3.40;1.77;;;11.40;99.90;;;10.68;100.00;98836.69;5034442;28;20207;-73
2023/10/29 04:31:32;;;;;;;2.67;1.37;;;11.40;99.90;;;10.69;100.00;98853.56;5034299;28;20240;-73
2023/10/29 04:34:00;;;;;;;1.60;1.40;;;11.40;99.90;;;10.68;100.00;98834.00;5034317;28;20261;-73
2023/10/29 04:36:28;;;;;;;3.80;1.60;;;11.40;99.90;;;10.73;100.00;98835.25;5034280;28;20222;-73
2023/10/29 04:38:56;;;;;;;3.77;1.70;;;11.50;99.90;;;10.74;100.00;98834.22;5034487;28;20242;-73
2023/10/29 04:41:26;;;;;;;4.03;1.80;;;11.50;99.90;;;10.74;100.00;98821.66;5034195;28;20252;-73
2023/10/29 04:43:54;;;;;;;2.67;1.90;;;11.50;99.90;;;10.74;100.00;98824.34;5034145;28;20217;-73
2023/10/29 04:46:22;;;;;;;2.70;1.70;;;11.50;99.90;;;10.77;100.00;98812.38;5034027;28;20231;-73
2023/10/29 04:48:50;;;;;;;2.20;1.53;;;11.50;99.90;;;10.77;100.00;98820.41;5034056;28;20238;-73
2023/10/29 04:51:18;;;;;;;4.43;1.73;;;11.50;99.90;;;10.79;100.00;98813.81;5034205;28;20309;-73
2023/10/29 04:53:46;;;;;;;3.90;1.70;;;11.50;99.90;;;10.81;100.00;98805.59;5034001;28;20234;-73
2023/10/29 04:56:15;;;;;;;3.50;1.50;;;11.50;99.90;;;10.82;100.00;98804.56;5033866;28;20277;-73
2023/10/29 04:58:44;;;;;;;2.50;1.60;;;11.60;99.90;;;10.85;100.00;98798.78;5033611;28;20669;-73
2023/10/29 05:01:13;;;;;;;3.57;1.57;;;11.60;99.90;;;10.88;100.00;98795.69;5033852;28;20230;-73
2023/10/29 05:03:41;;;;;;;4.60;1.70;;;11.60;99.90;;;10.89;100.00;98778.59;5033865;28;20214;-73
2023/10/29 05:06:19;;;;;;;4.07;1.53;;;11.60;99.90;;;10.90;100.00;98774.88;5033716;28;20240;-73
2023/10/29 05:08:47;;;;;;;2.80;1.70;;;11.60;99.90;;;10.89;100.00;98768.69;5033441;28;20278;-73
2023/10/29 05:11:15;;;;;;;3.53;1.50;;;11.60;99.90;;;10.92;100.00;98788.91;5033629;28;20234;-73
2023/10/29 05:13:45;;;;;;;2.90;1.77;;;11.60;99.90;;;10.94;100.00;98786.81;5033474;28;20561;-73
2023/10/29 05:16:13;;;;;;;3.50;1.80;;;11.60;99.90;;;10.97;100.00;98784.53;5033570;28;20255;-73
2023/10/29 05:18:41;;;;;;;2.27;1.50;;;11.70;99.90;;;11.01;100.00;98774.25;5033604;28;20203;-73
2023/10/29 05:21:09;;;;;;;3.67;1.67;;;11.80;99.90;;;11.02;100.00;98781.25;5033583;28;20264;-73
2023/10/29 05:23:38;;;;;;;2.73;1.43;;;11.80;99.90;;;11.03;100.00;98774.84;5033231;28;20695;-73
2023/10/29 05:26:06;;;;;;;3.03;1.53;;;11.80;99.90;;;11.05;100.00;98786.19;5034111;28;20640;-73
2023/10/29 05:28:34;;;;;;;4.83;1.67;;;11.80;99.90;;;11.03;100.00;98783.69;5033217;28;20206;-73
2023/10/29 05:31:04;;;;;;;2.50;1.40;;;11.70;99.90;;;11.03;100.00;98785.53;5033507;28;20234;-73
2023/10/29 05:33:33;;;;;;;2.73;1.47;;;11.70;99.90;;;11.06;100.00;98779.81;5033493;28;20229;-73
2023/10/29 05:36:02;;;;;;;3.80;1.60;;;11.80;99.90;;;11.12;100.00;98782.44;5033425;28;20227;-73
2023/10/29 05:38:30;;;;;;;2.27;1.37;;;11.80;99.90;;;11.16;100.00;98788.22;5033462;28;20222;-73
2023/10/29 05:40:58;;;;;;;3.90;1.40;;;11.90;99.90;;;11.27;100.00;98787.53;5033127;28;20211;-73
2023/10/29 05:43:26;;;;;;;2.33;1.60;;;12.00;99.90;;;11.22;100.00;98786.53;5033447;28;20290;-73
2023/10/29 05:45:54;;;;;;;3.03;1.40;;;12.00;99.90;;;11.21;100.00;98801.78;5033307;28;20317;-72
2023/10/29 05:48:24;;;;;;;1.50;1.40;;;11.90;99.90;;;11.19;100.00;98807.34;5033314;28;20207;-72
2023/10/29 05:50:52;;;;;;;3.60;1.60;;;11.90;99.90;;;11.23;100.00;98807.75;5033310;28;20210;-72
2023/10/29 05:53:20;;;;;;;3.70;1.50;;;11.90;99.90;;;11.30;100.00;98811.22;5032897;28;20231;-72
2023/10/29 05:55:49;;;;;;;2.70;1.60;;;12.00;99.90;;;11.27;100.00;98811.63;5033222;28;20223;-72
2023/10/29 05:58:17;;;;;;;2.37;1.43;;;12.00;99.90;;;11.27;100.00;98810.84;5032921;28;20582;-72
2023/10/29 06:00:45;;;;;;;2.33;1.47;;;12.00;99.90;;;11.23;100.00;98806.94;5033592;28;20631;-72
2023/10/29 06:03:13;;;;;;;2.30;1.50;;;11.90;99.90;;;11.19;100.00;98793.97;5033229;28;20202;-72
2023/10/29 06:05:43;;;;;;;1.97;1.50;;;11.90;99.90;;;11.20;100.00;98787.56;5032732;28;20774;-72
2023/10/29 06:08:11;;;;;;;2.77;1.60;;;11.90;99.90;;;11.20;100.00;98784.06;5033136;28;20218;-72
2023/10/29 06:10:39;;;;;;;1.80;1.40;;;11.90;99.90;;;11.21;100.00;98817.84;5033116;28;20294;-72
2023/10/29 06:13:07;;;;;;;3.50;1.47;;;11.90;99.90;;;11.31;100.00;98828.94;5032586;28;20242;-72
2023/10/29 06:15:35;;;;;;;4.27;1.50;;;12.00;99.90;;;11.40;100.00;98827.69;5033243;28;20277;-72
2023/10/29 06:18:06;;;;;;;2.10;1.27;;;12.10;99.90;;;11.36;100.00;98815.75;5033078;28;20207;-72
2023/10/29 06:20:34;;;;;;;4.63;1.50;;;12.10;99.90;;;11.42;100.00;98828.28;5036682;28;20202;-72
2023/10/29 06:23:04;;;;;;;3.07;1.47;;;12.10;99.90;;;11.45;100.00;98824.34;5036809;28;20633;-72
2023/10/29 06:25:32;;;;;;;2.10;1.30;;;12.20;99.90;;;11.42;100.00;98819.41;5036705;28;20254;-72
2023/10/29 06:28:00;;;;;;;2.50;1.50;;;12.20;99.90;;;11.38;100.00;98810.97;5036762;28;20257;-72
2023/10/29 06:30:28;;;;;;;4.37;1.40;;;12.10;99.90;;;11.38;100.00;98807.47;5036366;28;20211;-72
2023/10/29 06:33:00;;;;;;;2.67;1.50;;;12.10;99.90;;;11.35;100.00;98815.94;5036638;28;20230;-72
2023/10/29 06:35:29;;;;;;;2.93;1.40;;;12.00;99.90;;;11.32;100.00;98817.19;5036537;28;20241;-72
2023/10/29 06:37:57;;;;;;;2.53;1.50;;;12.00;99.90;;;11.32;100.00;98811.00;5037285;28;20235;-72
2023/10/29 06:40:27;;;;;;;3.27;1.60;;;12.00;99.90;;;11.32;100.00;98817.19;5036456;28;20207;-72
2023/10/29 06:42:55;;;;;;;2.73;1.40;;;12.00;99.90;;;11.46;100.00;98818.78;5036437;28;20203;-72
2023/10/29 06:45:23;;;;;;;2.90;1.83;;;12.20;99.90;;;11.47;100.00;98825.78;5035954;28;20783;-72
2023/10/29 06:47:51;;;;;;;4.80;1.70;;;12.10;99.90;;;11.49;100.00;98826.41;5036266;28;20687;-72
2023/10/29 06:50:19;;;;;;;3.40;1.57;;;12.20;99.90;;;11.62;100.00;98820.97;5036310;28;20236;-72
2023/10/29 06:52:48;;;;;;;4.77;1.80;;;12.40;99.90;;;11.64;100.00;98823.47;5035826;28;20705;-72
2023/10/29 06:55:16;;;;;;;3.13;1.60;;;12.30;99.90;;;11.69;100.00;98827.13;5035842;28;20803;-72
2023/10/29 06:57:45;;;;;;;4.30;1.50;;;12.40;99.90;;;11.71;100.00;98823.47;5036397;28;20284;-72
2023/10/29 07:00:14;;;;;;;3.03;1.60;;;12.40;99.90;;;11.89;99.39;98823.56;5036130;28;20241;-72
2023/10/29 07:02:42;;;;;;;3.10;1.67;;;12.50;99.90;;;11.82;99.28;98820.06;5035802;28;20571;-73
2023/10/29 07:05:11;;;;;;;2.80;1.60;;;12.50;99.90;;;11.85;99.89;98820.47;5036013;28;20222;-73
2023/10/29 07:07:39;;;;;;;5.43;1.70;;;12.50;99.90;;;11.91;98.51;98824.19;5035975;28;20234;-73
2023/10/29 07:10:09;;;;;;;7.20;1.73;;;12.50;99.90;;;11.88;98.55;98819.25;5035961;28;20276;-73
2023/10/29 07:12:37;;;;;;;3.00;1.60;;;12.50;99.90;;;11.87;98.59;98829.16;5035702;28;20234;-73
2023/10/29 07:15:12;;;;;;;3.20;1.60;;;12.60;99.90;;;11.84;98.88;98834.94;5035488;28;20598;-73
2023/10/29 07:17:40;;;;;;;2.53;1.43;;;12.50;99.90;;;11.84;99.81;98826.06;5035782;28;20207;-73
2023/10/29 07:20:10;;;;;;;5.43;1.90;;;12.50;99.90;;;11.88;98.84;98830.81;5035776;28;20302;-73
2023/10/29 07:22:38;;;;;;;4.63;1.70;;;12.60;99.90;;;11.83;99.98;98827.09;5035729;28;20207;-73
2023/10/29 07:25:08;;;;;;;3.63;1.57;;;12.50;99.90;;;11.82;99.75;98820.91;5035640;28;20289;-73
2023/10/29 07:27:36;;;;;;;2.27;1.60;;;12.50;99.90;;;11.96;98.59;98827.00;5035323;28;20623;-73
2023/10/29 07:30:06;;;;;;;2.40;1.60;;;12.60;99.90;;;11.93;98.17;98839.00;5035680;28;20301;-73
2023/10/29 07:32:36;;;;;;;4.53;1.67;;;12.60;99.90;;;11.98;98.31;98831.16;5035091;28;20246;-73
2023/10/29 07:35:05;;;;;;;1.60;1.43;;;12.70;99.90;;;11.97;98.59;98839.41;5035450;28;20289;-73
2023/10/29 07:37:33;;;;;;;2.60;1.60;;;12.70;99.90;;;11.99;98.21;98845.34;5035436;28;20238;-73
2023/10/29 07:40:02;;;;;;;2.43;1.40;;;12.70;99.90;;;12.01;98.24;98845.97;5035397;28;20206;-73
2023/10/29 07:42:30;;;;;;;2.67;1.87;;;12.70;99.90;;;12.08;96.43;98826.13;5035350;28;20206;-73
2023/10/29 07:44:58;;;;;;;4.40;1.67;;;12.80;99.90;;;12.08;96.07;98836.03;5035236;28;20297;-73
2023/10/29 07:47:27;;;;;;;2.77;1.30;;;12.80;99.90;;;12.11;96.74;98830.22;5034948;28;20249;-73
2023/10/29 07:49:56;;;;;;;3.87;1.60;;;12.80;99.90;;;12.10;96.77;98844.69;5035175;28;20210;-73
2023/10/29 07:52:24;;;;;;;3.77;1.67;;;12.80;99.90;;;12.15;95.91;98836.81;5035062;28;20612;-73
2023/10/29 07:54:53;;;;;;;2.70;1.60;;;12.80;99.90;;;12.23;95.09;98841.06;5034722;28;20707;-73
2023/10/29 07:57:21;;;;;;;3.87;1.80;;;12.90;99.90;;;12.16;95.47;98843.81;5035037;28;20290;-73
2023/10/29 07:59:49;;;;;;;2.60;1.70;;;12.80;99.90;;;12.19;95.93;98840.72;5034658;28;20297;-73
2023/10/29 08:02:17;;;;;;;3.10;1.77;;;12.90;99.90;;;12.19;95.14;98843.41;5035184;28;20207;-73
2023/10/29 08:04:45;;;;;;;3.43;1.57;;;12.90;99.90;;;12.19;95.00;98832.66;5034994;28;20390;-73
2023/10/29 08:07:15;;;;;;;2.60;1.50;;;12.90;99.90;;;12.17;95.42;98840.91;5034567;28;20207;-73
2023/10/29 08:09:44;;;;;;;3.80;1.40;;;12.90;99.90;;;12.18;95.57;98842.56;5034488;28;20217;-73
2023/10/29 08:12:12;;;;;;;3.80;2.10;;;12.90;99.90;;;12.18;95.64;98847.94;5034531;28;20669;-73
2023/10/29 08:14:40;;;;;;;2.43;1.50;;;12.90;99.90;;;12.15;96.52;98842.19;5034730;28;20250;-73
2023/10/29 08:17:08;;;;;;;3.83;1.43;;;12.80;99.90;;;12.14;96.31;98840.53;5034594;28;20235;-73
2023/10/29 08:19:36;;;;;;;3.13;1.60;;;12.80;99.90;;;12.13;95.63;98855.81;5034624;28;20210;-73
2023/10/29 08:22:04;;;;;;;3.70;1.70;;;12.80;99.90;;;12.19;94.96;98864.88;5034575;28;20253;-73
2023/10/29 08:24:35;;;;;;;2.63;1.60;;;12.90;99.90;;;12.33;93.02;98866.41;5034463;28;20770;-73
2023/10/29 08:27:03;;;;;;;3.20;1.70;;;13.00;99.90;;;12.27;93.98;98869.94;5034450;28;20230;-73
2023/10/29 08:29:34;;;;;;;3.20;1.40;;;13.00;99.90;;;12.36;93.01;98871.34;5034467;28;20203;-73
2023/10/29 08:32:03;;;;;;;2.50;1.60;;;13.00;99.90;;;12.32;94.08;98864.78;5034151;28;20191;-73
2023/10/29 08:34:31;;;;;;;4.23;1.67;;;13.00;99.90;;;12.30;94.16;98869.50;5034338;28;20233;-73
2023/10/29 08:36:59;;;;;;;3.53;1.70;;;13.00;99.90;;;12.40;93.03;98877.06;5034214;28;20296;-73
2023/10/29 08:39:27;;;;;;;5.13;2.60;;;13.00;99.90;;;12.35;93.74;98872.38;5034256;28;20242;-73
2023/10/29 08:41:57;;;;;;;3.13;2.50;;;13.10;99.90;;;12.39;92.98;98859.34;5033801;28;20261;-73
2023/10/29 08:44:26;;;;;;;3.37;2.10;;;13.10;99.90;;;12.46;91.53;98866.31;5033336;28;20202;-73
2023/10/29 08:46:54;;;;;;;35.43;22.10;;;13.10;99.90;;;12.42;92.86;98875.84;5034059;28;20300;-73
2023/10/29 08:49:22;;;;;;;8.17;3.83;;;13.10;99.90;;;12.54;91.54;98876.78;5034296;28;20351;-73
2023/10/29 08:51:51;;;;;;;7.07;4.97;;;13.20;99.90;;;12.53;91.38;98867.09;5034029;28;20211;-73
2023/10/29 08:54:20;;;;;;;5.70;3.90;;;13.20;99.90;;;12.54;91.32;98870.56;5033911;28;20236;-73
2023/10/29 08:56:48;;;;;;;5.27;2.53;;;13.20;99.90;;;12.59;91.53;98876.97;5033588;28;20321;-72
2023/10/29 08:59:18;;;;;;;5.30;2.10;;;13.30;99.90;;;12.60;91.63;98878.59;5033901;28;20294;-72
2023/10/29 09:01:47;;;;;;;5.27;3.77;;;13.30;99.90;;;12.64;90.93;98879.78;5033570;28;20669;-72
2023/10/29 09:04:15;;;;;;;5.13;2.17;;;13.30;99.90;;;12.75;89.85;98885.50;5033824;28;20645;-73
2023/10/29 09:06:44;;;;;;;3.20;2.70;;;13.40;99.90;;;12.72;91.56;98897.50;5033750;28;20238;-73
2023/10/29 09:09:12;;;;;;;4.67;3.60;;;13.40;99.90;;;12.86;89.76;98892.84;5033764;28;20265;-72
2023/10/29 09:11:43;;;;;;;4.83;2.90;;;13.50;99.90;;;12.79;90.53;98902.81;5033516;28;20210;-72
2023/10/29 09:14:13;;;;;;;4.73;2.57;;;13.50;99.90;;;12.80;90.46;98915.22;5033345;28;20214;-72
2023/10/29 09:16:47;;;;;;;4.73;3.27;;;13.40;99.90;;;12.91;90.08;98928.72;5033640;28;20230;-72
2023/10/29 09:19:15;;;;;;;4.20;2.40;;;13.60;99.90;;;13.09;88.53;98919.94;5033676;28;20563;-72
2023/10/29 09:21:44;;;;;;;5.57;2.23;;;13.70;99.90;;;13.23;87.74;98931.38;5033643;28;20256;-72
2023/10/29 09:24:12;;;;;;;6.37;3.17;;;14.00;99.90;;;13.36;87.89;98932.09;5033604;28;20199;-72
2023/10/29 09:26:41;;;;;;;7.57;6.17;;;14.10;99.90;;;13.44;88.55;98929.13;5033443;28;20223;-72
2023/10/29 09:29:09;;;;;;;6.53;5.57;;;14.10;99.90;;;13.55;87.04;98946.38;5033213;28;20554;-72
2023/10/29 09:31:37;;;;;;;4.13;3.00;;;14.20;99.90;;;13.73;86.16;98939.13;5033484;28;20238;-72
2023/10/29 09:34:07;;;;;;;3.17;2.03;;;14.40;99.90;;;13.81;85.16;98929.94;5033340;28;20237;-72
2023/10/29 09:36:36;;;;;;;6.07;4.30;;;14.50;99.90;;;13.93;85.20;98927.34;5033398;28;20265;-72
2023/10/29 09:39:05;;;;;;;6.57;2.37;;;14.60;99.90;;;14.04;83.98;98934.66;5033342;28;20683;-72
2023/10/29 09:41:35;;;;;;;3.37;2.07;;;14.70;99.90;;;14.08;85.36;98941.19;5033101;28;20210;-72
2023/10/29 09:44:07;;;;;;;2.27;1.70;;;14.70;99.90;;;14.07;85.53;98934.19;5033449;28;20187;-72
2023/10/29 09:46:38;;;;;;;2.40;2.03;;;14.70;99.90;;;14.15;84.00;98920.41;5033335;28;20321;-73
2023/10/29 09:49:07;;;;;;;1.80;1.30;;;14.80;99.90;;;14.21;83.86;98924.91;5033357;28;20195;-73
2023/10/29 09:51:38;;;;;;;3.20;1.63;;;14.90;99.90;;;14.17;83.48;98929.94;5033289;28;20305;-73
2023/10/29 09:54:09;;;;;;;3.23;1.80;;;14.80;99.90;;;14.14;84.53;98945.69;5034344;28;20301;-73
2023/10/29 09:56:39;;;;;;;3.57;1.43;;;14.80;99.90;;;14.12;84.74;98943.22;5037447;28;20223;-73
2023/10/29 09:59:07;;;;;;;2.10;1.60;;;14.80;99.90;;;14.14;84.58;98945.69;5036970;28;20571;-74
2023/10/29 10:01:36;;;;;;;2.30;1.30;;;14.80;99.90;;;14.04;84.79;98961.56;5037234;28;20268;-74
2023/10/29 10:04:25;;;;;;;1.20;1.10;;;14.70;99.90;;;14.11;83.37;98956.88;5037851;28;20558;-73
2023/10/29 10:06:58;;;;;;;2.37;1.40;;;14.70;99.90;;;14.19;82.24;98959.28;5037084;28;20318;-72
2023/10/29 10:09:26;;;;;;;4.43;1.40;;;14.80;99.90;;;14.09;83.09;98953.63;5037171;28;20257;-72
2023/10/29 10:12:05;;;;;;;2.70;1.30;;;14.70;99.90;;;14.27;80.94;98966.22;5036892;28;20203;-72
2023/10/29 10:14:33;;;;;;;6.93;1.53;;;14.90;99.90;;;14.23;82.34;98960.47;5036607;28;20642;-72
2023/10/29 10:17:09;;;;;;;6.40;2.70;;;14.90;99.90;;;14.25;82.04;98962.97;5036573;28;20258;-72
2023/10/29 10:19:39;;;;;;;3.37;1.47;;;14.90;99.90;;;14.27;81.31;98967.06;5036923;28;20210;-72
2023/10/29 10:22:07;;;;;;;3.20;1.80;;;14.90;99.90;;;14.22;82.25;98972.28;5036563;28;20301;-72
2023/10/29 10:24:43;;;;;;;1.77;1.47;;;14.90;99.90;;;14.26;81.32;98964.56;5036796;28;20289;-72